createdAt,value
2024-02-07T00:02:32.028Z,10.26
2024-02-07T00:05:34.126Z,10.10
2024-02-07T00:08:36.065Z,9.98
2024-02-07T00:11:38.374Z,9.77
2024-02-07T00:14:40.599Z,9.67
2024-02-07T00:17:42.924Z,9.64
2024-02-07T00:20:45.406Z,9.56
2024-02-07T00:23:47.598Z,9.43
2024-02-07T00:26:50.040Z,9.35
2024-02-07T00:29:51.697Z,9.19
2024-02-07T00:32:53.512Z,9.14
2024-02-07T00:35:55.948Z,9.11
2024-02-07T00:38:57.952Z,9.02
2024-02-07T00:42:00.595Z,9.02
2024-02-07T00:45:03.392Z,9.01
2024-02-07T00:48:05.891Z,9.04
2024-02-07T00:51:08.669Z,9.06
2024-02-07T00:54:11.373Z,9.01
2024-02-07T00:57:13.641Z,9.00
2024-02-07T01:00:16.376Z,8.95
2024-02-07T01:03:18.555Z,9.05
2024-02-07T01:06:21.167Z,8.95
2024-02-07T01:09:23.338Z,8.88
2024-02-07T01:12:25.562Z,8.86
2024-02-07T01:15:27.364Z,8.71
2024-02-07T01:18:29.187Z,8.61
2024-02-07T01:21:31.419Z,8.49
2024-02-07T01:24:33.429Z,8.50
2024-02-07T01:27:35.257Z,8.51
2024-02-07T01:30:37.142Z,8.58
2024-02-07T01:33:39.520Z,8.59
2024-02-07T01:36:49.052Z,8.60
2024-02-07T01:39:51.311Z,8.57
2024-02-07T01:42:53.472Z,8.47
2024-02-07T01:45:55.208Z,8.38
2024-02-07T01:48:56.855Z,8.36
2024-02-07T01:51:59.144Z,8.32
2024-02-07T01:55:00.873Z,8.27
2024-02-07T01:58:04.547Z,8.19
2024-02-07T02:01:07.041Z,8.13
2024-02-07T02:04:08.878Z,8.12
2024-02-07T02:07:11.038Z,8.16
2024-02-07T02:10:14.737Z,8.12
2024-02-07T02:13:16.834Z,8.19
2024-02-07T02:16:19.440Z,8.20
2024-02-07T02:19:21.680Z,8.22
2024-02-07T02:22:51.666Z,8.15
2024-02-07T02:26:12.559Z,8.01
2024-02-07T02:29:26.887Z,7.91
2024-02-07T02:32:30.030Z,7.81
2024-02-07T02:35:32.834Z,7.86
2024-02-07T02:38:36.474Z,7.98
2024-02-07T02:41:38.159Z,7.89
2024-02-07T02:44:40.325Z,7.93
2024-02-07T02:47:43.051Z,8.02
2024-02-07T02:50:45.679Z,8.15
2024-02-07T02:53:48.303Z,8.13
2024-02-07T02:56:50.457Z,8.14
2024-02-07T02:59:52.635Z,8.12
2024-02-07T03:02:56.708Z,8.11
2024-02-07T03:05:59.532Z,8.12
2024-02-07T03:09:01.683Z,8.09
2024-02-07T03:12:03.618Z,8.13
2024-02-07T03:15:05.848Z,8.17
2024-02-07T03:18:10.765Z,8.11
2024-02-07T03:21:12.472Z,8.18
2024-02-07T03:24:14.187Z,8.15
2024-02-07T03:27:16.399Z,8.18
2024-02-07T03:30:20.284Z,8.14
2024-02-07T03:33:22.682Z,8.02
2024-02-07T03:36:25.293Z,7.92
2024-02-07T03:39:27.586Z,7.84
2024-02-07T03:42:29.751Z,7.85
2024-02-07T03:45:31.999Z,7.72
2024-02-07T03:48:37.914Z,7.55
2024-02-07T03:51:41.643Z,7.59
2024-02-07T03:54:44.029Z,7.64
2024-02-07T03:57:45.872Z,7.58
2024-02-07T04:00:48.090Z,7.57
2024-02-07T04:03:50.511Z,7.61
2024-02-07T04:06:52.380Z,7.77
2024-02-07T04:09:54.205Z,7.78
2024-02-07T04:12:56.329Z,7.71
2024-02-07T04:15:58.502Z,7.79
2024-02-07T04:19:01.127Z,7.65
2024-02-07T04:22:03.164Z,7.55
2024-02-07T04:25:05.426Z,7.43
2024-02-07T04:28:07.157Z,7.36
2024-02-07T04:31:08.904Z,7.30
2024-02-07T04:34:10.932Z,7.34
2024-02-07T04:37:13.106Z,7.31
2024-02-07T04:40:14.977Z,7.39
2024-02-07T04:43:17.232Z,7.33
2024-02-07T04:46:19.488Z,7.35
2024-02-07T04:49:21.291Z,7.38
2024-02-07T04:52:23.650Z,7.29
2024-02-07T04:55:26.001Z,7.30
2024-02-07T04:58:28.196Z,7.38
2024-02-07T05:01:29.941Z,7.40
2024-02-07T05:04:32.143Z,7.47
2024-02-07T05:07:34.287Z,7.45
2024-02-07T05:10:36.692Z,7.42
2024-02-07T05:13:38.963Z,7.39
2024-02-07T05:16:41.231Z,7.36
2024-02-07T05:19:43.011Z,7.40
2024-02-07T05:22:46.356Z,7.39
2024-02-07T05:25:48.608Z,7.35
2024-02-07T05:28:51.077Z,7.32
2024-02-07T05:31:55.560Z,7.26
2024-02-07T05:34:58.465Z,7.30
2024-02-07T05:38:02.623Z,7.40
2024-02-07T05:41:05.035Z,7.38
2024-02-07T05:44:07.151Z,7.35
2024-02-07T05:47:09.375Z,7.31
2024-02-07T05:50:11.830Z,7.32
2024-02-07T05:53:13.569Z,7.44
2024-02-07T05:56:15.844Z,7.51
2024-02-07T05:59:18.526Z,7.53
2024-02-07T06:02:20.841Z,7.59
2024-02-07T06:05:23.139Z,7.55
2024-02-07T06:08:25.704Z,7.52
2024-02-07T06:11:27.752Z,7.51
2024-02-07T06:14:29.753Z,7.44
2024-02-07T06:17:32.079Z,7.33
2024-02-07T06:20:34.386Z,7.30
2024-02-07T06:23:36.498Z,7.35
2024-02-07T06:26:39.022Z,7.35
2024-02-07T06:29:43.351Z,7.41
2024-02-07T06:32:46.421Z,7.47
2024-02-07T06:35:48.135Z,7.55
2024-02-07T06:38:49.761Z,7.62
2024-02-07T06:41:51.822Z,7.55
2024-02-07T06:44:54.039Z,7.45
2024-02-07T06:47:55.758Z,7.39
2024-02-07T06:50:58.076Z,6.96
2024-02-07T06:54:00.040Z,6.74
2024-02-07T06:57:04.719Z,6.73
2024-02-07T07:00:07.829Z,6.66
2024-02-07T07:03:09.602Z,6.54
2024-02-07T07:06:12.080Z,6.58
2024-02-07T07:09:13.971Z,6.57
2024-02-07T07:12:16.970Z,6.46
2024-02-07T07:15:26.509Z,6.47
2024-02-07T07:18:35.498Z,6.55
2024-02-07T07:21:37.264Z,6.61
2024-02-07T07:24:39.887Z,6.54
2024-02-07T07:27:42.142Z,6.64
2024-02-07T07:30:44.201Z,6.81
2024-02-07T07:33:49.534Z,6.92
2024-02-07T07:36:54.212Z,7.02
2024-02-07T07:39:56.206Z,7.13
2024-02-07T07:42:58.083Z,7.10
2024-02-07T07:46:00.883Z,7.18
2024-02-07T07:49:03.303Z,7.25
2024-02-07T07:52:05.801Z,7.26
2024-02-07T07:55:07.949Z,7.28
2024-02-07T07:58:10.098Z,7.51
2024-02-07T08:01:16.404Z,7.55
2024-02-07T08:04:18.366Z,7.69
2024-02-07T08:07:20.236Z,7.82
2024-02-07T08:10:24.267Z,7.92
2024-02-07T08:13:26.132Z,7.96
2024-02-07T08:16:28.591Z,7.98
2024-02-07T08:19:30.539Z,8.02
2024-02-07T08:22:33.629Z,8.18
2024-02-07T08:25:36.144Z,8.28
2024-02-07T08:28:38.250Z,9.09
2024-02-07T08:31:40.255Z,8.72
2024-02-07T08:34:42.566Z,8.64
2024-02-07T08:37:46.009Z,8.70
2024-02-07T08:40:48.283Z,8.69
2024-02-07T08:43:53.741Z,8.91
2024-02-07T08:46:55.992Z,8.93
2024-02-07T08:49:58.277Z,8.91
2024-02-07T08:53:00.921Z,8.98
2024-02-07T08:56:03.470Z,9.11
2024-02-07T08:59:08.965Z,9.15
2024-02-07T09:02:10.784Z,9.25
2024-02-07T09:05:13.320Z,9.39
2024-02-07T09:08:15.764Z,9.46
2024-02-07T09:11:17.893Z,9.67
2024-02-07T09:14:20.264Z,9.85
2024-02-07T09:17:24.122Z,9.94
2024-02-07T09:20:25.863Z,10.03
2024-02-07T09:23:28.015Z,10.12
2024-02-07T09:26:33.936Z,10.24
2024-02-07T09:29:36.051Z,10.61
2024-02-07T09:32:42.037Z,10.60
2024-02-07T09:35:44.286Z,10.56
2024-02-07T09:38:46.337Z,10.76
2024-02-07T09:41:50.667Z,10.75
2024-02-07T09:44:53.736Z,10.77
2024-02-07T09:48:16.263Z,11.00
2024-02-07T09:51:20.301Z,10.82
2024-02-07T09:54:24.952Z,10.84
2024-02-07T09:57:27.040Z,10.73
2024-02-07T10:00:28.984Z,10.84
2024-02-07T10:03:34.364Z,10.63
2024-02-07T10:06:37.244Z,10.81
2024-02-07T10:09:39.748Z,10.80
2024-02-07T10:12:41.418Z,10.77
2024-02-07T10:15:45.313Z,11.03
2024-02-07T10:18:47.142Z,11.26
2024-02-07T10:21:49.379Z,11.38
2024-02-07T10:24:51.901Z,11.48
2024-02-07T10:28:04.354Z,11.59
2024-02-07T10:31:06.517Z,11.81
2024-02-07T10:34:19.625Z,11.93
2024-02-07T10:37:21.691Z,12.00
2024-02-07T10:40:26.518Z,12.44
2024-02-07T10:43:31.940Z,12.37
2024-02-07T10:46:34.282Z,13.17
2024-02-07T10:49:36.392Z,13.14
2024-02-07T10:52:41.947Z,13.01
2024-02-07T10:55:45.794Z,13.16
2024-02-07T10:58:49.824Z,13.15
2024-02-07T11:01:53.780Z,13.29
2024-02-07T11:05:00.594Z,13.43
2024-02-07T11:08:06.004Z,13.17
2024-02-07T11:11:09.511Z,13.30
2024-02-07T11:14:11.967Z,14.12
2024-02-07T11:17:16.568Z,14.24
2024-02-07T11:20:21.947Z,14.72
2024-02-07T11:23:31.735Z,14.69
2024-02-07T11:26:36.163Z,14.85
2024-02-07T11:29:38.138Z,14.98
2024-02-07T11:32:39.913Z,14.87
2024-02-07T11:35:42.294Z,14.90
2024-02-07T11:38:54.798Z,14.73
2024-02-07T11:41:58.289Z,15.31
2024-02-07T11:45:00.751Z,15.64
2024-02-07T11:48:03.182Z,15.81
2024-02-07T11:51:10.508Z,15.77
2024-02-07T11:54:20.279Z,15.60
2024-02-07T11:57:22.964Z,16.75
2024-02-07T12:00:25.479Z,15.99
2024-02-07T12:03:27.678Z,15.42
2024-02-07T12:06:29.855Z,14.99
2024-02-07T12:09:33.465Z,14.72
2024-02-07T12:12:35.988Z,15.10
2024-02-07T12:15:38.620Z,14.82
2024-02-07T12:18:40.772Z,15.02
2024-02-07T12:21:44.514Z,14.97
2024-02-07T12:24:46.844Z,15.04
2024-02-07T12:27:48.616Z,15.24
2024-02-07T12:30:50.921Z,15.14
2024-02-07T12:37:19.062Z,16.37
2024-02-07T12:40:23.819Z,18.09
2024-02-07T12:43:36.532Z,18.61
2024-02-07T12:46:42.287Z,18.69
2024-02-07T12:49:45.385Z,21.51
2024-02-07T12:52:48.463Z,21.58
2024-02-07T12:56:00.524Z,23.62
2024-02-07T12:59:02.557Z,22.74
2024-02-07T13:02:09.699Z,21.10
2024-02-07T13:05:12.187Z,20.19
2024-02-07T13:08:14.589Z,22.59
2024-02-07T13:11:19.991Z,24.62
2024-02-07T13:14:22.887Z,25.03
2024-02-07T13:17:33.924Z,23.15
2024-02-07T13:20:35.943Z,19.23
2024-02-07T13:23:38.232Z,17.10
2024-02-07T13:26:40.274Z,15.96
2024-02-07T13:29:42.031Z,15.40
2024-02-07T13:32:44.821Z,14.97
2024-02-07T13:35:46.764Z,14.60
2024-02-07T13:38:50.018Z,14.55
2024-02-07T13:41:52.325Z,14.38
2024-02-07T13:44:54.260Z,14.38
2024-02-07T13:47:56.160Z,14.32
2024-02-07T13:51:04.660Z,14.26
2024-02-07T13:54:11.468Z,14.19
2024-02-07T13:57:14.340Z,14.02
2024-02-07T14:00:17.741Z,14.08
2024-02-07T14:03:19.711Z,14.13
2024-02-07T14:06:21.611Z,13.98
2024-02-07T14:09:23.819Z,13.97
2024-02-07T14:12:27.452Z,13.88
2024-02-07T14:15:31.709Z,13.87
2024-02-07T14:18:33.797Z,13.82
2024-02-07T14:21:36.428Z,13.78
2024-02-07T14:24:38.552Z,13.75
2024-02-07T14:27:41.626Z,13.71
2024-02-07T14:30:43.685Z,13.66
2024-02-07T14:33:45.416Z,13.71
2024-02-07T14:36:47.200Z,13.60
2024-02-07T14:39:48.956Z,13.53
2024-02-07T14:42:51.193Z,13.56
2024-02-07T14:45:53.536Z,13.51
2024-02-07T14:48:55.809Z,13.51
2024-02-07T14:51:58.537Z,13.45
2024-02-07T14:55:00.928Z,13.43
2024-02-07T14:58:02.954Z,13.49
2024-02-07T15:01:05.226Z,13.43
2024-02-07T15:04:11.109Z,13.45
2024-02-07T15:07:13.531Z,13.47
2024-02-07T15:10:28.018Z,13.38
2024-02-07T15:13:30.014Z,13.32
2024-02-07T15:16:31.848Z,13.26
2024-02-07T15:19:34.107Z,13.20
2024-02-07T15:22:40.191Z,13.14
2024-02-07T15:25:43.576Z,12.98
2024-02-07T15:28:45.986Z,13.32
2024-02-07T15:31:48.339Z,13.38
2024-02-07T15:34:50.342Z,13.43
2024-02-07T15:37:53.148Z,13.44
2024-02-07T15:40:56.216Z,13.55
2024-02-07T15:43:58.366Z,13.84
2024-02-07T15:47:00.924Z,13.92
2024-02-07T15:50:03.567Z,13.88
2024-02-07T15:53:05.936Z,13.79
2024-02-07T15:56:08.637Z,13.80
2024-02-07T15:59:10.475Z,13.86
2024-02-07T16:02:12.702Z,13.47
2024-02-07T16:05:16.004Z,13.50
2024-02-07T16:08:18.608Z,13.67
2024-02-07T16:11:20.641Z,13.34
2024-02-07T16:14:23.639Z,13.31
2024-02-07T16:17:26.112Z,13.55
2024-02-07T16:20:28.279Z,13.10
2024-02-07T16:23:30.514Z,12.99
2024-02-07T16:26:32.689Z,13.12
2024-02-07T16:29:34.453Z,12.88
2024-02-07T16:32:36.419Z,12.79
2024-02-07T16:35:38.921Z,12.64
2024-02-07T16:38:41.071Z,12.46
2024-02-07T16:41:42.871Z,12.54
2024-02-07T16:44:45.408Z,12.63
2024-02-07T16:47:47.654Z,12.61
2024-02-07T16:50:49.453Z,12.31
2024-02-07T16:53:51.736Z,12.48
2024-02-07T16:56:57.309Z,13.07
2024-02-07T16:59:59.920Z,13.77
2024-02-07T17:03:01.690Z,14.05
2024-02-07T17:06:04.646Z,13.92
2024-02-07T17:09:09.677Z,13.91
2024-02-07T17:12:12.376Z,13.44
2024-02-07T17:15:14.974Z,13.35
2024-02-07T17:18:18.233Z,13.66
2024-02-07T17:21:21.722Z,12.94
2024-02-07T17:24:23.659Z,12.45
2024-02-07T17:27:27.328Z,12.14
2024-02-07T17:30:36.394Z,11.92
2024-02-07T17:33:44.214Z,11.71
2024-02-07T17:36:47.211Z,11.62
2024-02-07T17:39:59.384Z,11.52
2024-02-07T17:43:03.718Z,11.42
2024-02-07T17:46:06.342Z,11.40
2024-02-07T17:49:08.651Z,11.33
2024-02-07T17:52:13.629Z,11.36
2024-02-07T17:55:15.903Z,11.28
2024-02-07T17:58:18.338Z,11.35
2024-02-07T18:04:37.184Z,11.57
2024-02-07T18:07:39.177Z,11.69
2024-02-07T18:10:40.968Z,11.71
2024-02-07T18:13:52.162Z,11.73
2024-02-07T18:16:54.610Z,11.79
2024-02-07T18:19:56.474Z,11.82
2024-02-07T18:23:02.040Z,11.74
2024-02-07T18:26:17.381Z,11.72
2024-02-07T18:29:19.627Z,11.71
2024-02-07T18:32:24.346Z,11.65
2024-02-07T18:35:27.140Z,11.64
2024-02-07T18:41:51.442Z,11.53
2024-02-07T18:45:10.717Z,11.52
2024-02-07T18:48:12.576Z,11.48
2024-02-07T18:51:16.870Z,11.48
2024-02-07T18:54:19.550Z,11.43
2024-02-07T18:57:21.778Z,11.41
2024-02-07T19:00:25.508Z,11.44
2024-02-07T19:03:27.484Z,11.40
2024-02-07T19:06:29.943Z,11.49
2024-02-07T19:09:32.051Z,11.48
2024-02-07T19:12:36.873Z,11.46
2024-02-07T19:15:38.916Z,11.42
2024-02-07T19:18:41.004Z,11.27
2024-02-07T19:21:43.496Z,11.15
2024-02-07T19:24:45.916Z,11.06
2024-02-07T19:27:49.743Z,10.96
2024-02-07T19:30:51.503Z,10.96
2024-02-07T19:33:53.523Z,10.88
2024-02-07T19:36:56.109Z,10.94
2024-02-07T19:40:10.749Z,10.87
2024-02-07T19:43:13.759Z,10.87
2024-02-07T19:46:16.321Z,10.83
2024-02-07T19:49:18.546Z,10.87
2024-02-07T19:52:20.391Z,10.92
2024-02-07T19:55:22.343Z,10.93
2024-02-07T19:58:25.192Z,10.90
2024-02-07T20:01:28.744Z,10.85
2024-02-07T20:04:31.158Z,11.00
2024-02-07T20:07:33.017Z,11.05
2024-02-07T20:10:34.710Z,10.97
2024-02-07T20:13:36.568Z,11.00
2024-02-07T20:16:38.997Z,10.98
2024-02-07T20:19:43.535Z,11.04
2024-02-07T20:22:46.470Z,11.09
2024-02-07T20:25:55.068Z,11.09
2024-02-07T20:29:05.753Z,11.12
2024-02-07T20:32:10.692Z,11.10
2024-02-07T20:35:12.798Z,11.05
2024-02-07T20:38:14.590Z,11.01
2024-02-07T20:41:16.261Z,10.98
2024-02-07T20:44:18.363Z,11.01
2024-02-07T20:47:21.268Z,10.94
2024-02-07T20:50:24.371Z,11.00
2024-02-07T20:53:26.896Z,10.95
2024-02-07T20:56:31.477Z,10.95
2024-02-07T20:59:34.095Z,10.96
2024-02-07T21:02:36.707Z,10.93
2024-02-07T21:05:40.309Z,10.96
2024-02-07T21:08:42.097Z,10.92
2024-02-07T21:11:44.114Z,10.95
2024-02-07T21:14:46.936Z,11.00
2024-02-07T21:17:52.305Z,10.93
2024-02-07T21:20:56.613Z,10.96
2024-02-07T21:23:59.409Z,10.96
2024-02-07T21:27:01.507Z,11.00
2024-02-07T21:30:13.383Z,10.99
2024-02-07T21:33:15.512Z,10.97
2024-02-07T21:36:17.642Z,10.90
2024-02-07T21:39:19.915Z,10.87
2024-02-07T21:42:22.003Z,10.88
2024-02-07T21:45:23.892Z,10.93
2024-02-07T21:48:29.000Z,10.95
2024-02-07T21:51:31.192Z,10.94
2024-02-07T21:54:33.124Z,10.87
2024-02-07T21:57:35.714Z,10.90
2024-02-07T22:00:37.704Z,10.96
2024-02-07T22:03:40.386Z,10.96
2024-02-07T22:06:43.683Z,10.94
2024-02-07T22:09:45.696Z,10.90
2024-02-07T22:12:47.933Z,10.84
2024-02-07T22:15:51.274Z,10.81
2024-02-07T22:18:55.956Z,10.77
2024-02-07T22:21:59.023Z,10.66
2024-02-07T22:25:01.052Z,10.62
2024-02-07T22:28:02.787Z,10.59
2024-02-07T22:31:04.848Z,10.65
2024-02-07T22:34:07.534Z,10.56
2024-02-07T22:37:09.924Z,10.48
2024-02-07T22:40:13.924Z,10.48
2024-02-07T22:43:16.364Z,10.48
2024-02-07T22:46:18.028Z,10.54
2024-02-07T22:49:19.866Z,10.47
2024-02-07T22:52:21.978Z,10.43
2024-02-07T22:55:24.303Z,10.41
2024-02-07T22:58:26.739Z,10.43
2024-02-07T23:01:29.138Z,10.40
2024-02-07T23:04:32.164Z,10.27
2024-02-07T23:07:37.328Z,10.24
2024-02-07T23:10:39.583Z,10.25
2024-02-07T23:13:41.725Z,10.13
2024-02-07T23:16:43.911Z,10.02
2024-02-07T23:19:46.193Z,9.89
2024-02-07T23:22:49.040Z,9.91
2024-02-07T23:25:51.337Z,9.95
2024-02-07T23:28:53.268Z,9.94
2024-02-07T23:31:55.524Z,9.93
2024-02-07T23:34:57.486Z,9.91
2024-02-07T23:37:59.838Z,9.92
2024-02-07T23:41:02.598Z,9.97
2024-02-07T23:44:04.704Z,10.04
2024-02-07T23:47:07.339Z,10.10
2024-02-07T23:50:09.326Z,10.13
2024-02-07T23:53:11.520Z,10.10
2024-02-07T23:56:13.388Z,10.22
2024-02-07T23:59:15.444Z,10.17
